Aviation Digital Data Service (ADDS)

Output produced by METARs form (0327 UTC 19 August 2019)
found at http://www.aviationweather.gov/metar/data/
 
Forecast for: VLPS (PAKSE INTL , LA)
Text: TAF VLPS 182300Z 1900/1924 18006KT 9999 SCT020 BKN050
Forecast period: 0000 UTC 19 August 2019 to 0000 UTC 20 August 2019
Forecast type: FROM: standard forecast or significant change
Winds: from the S (180 degrees) at 7 MPH (6 knots; 3.1 m/s)
Visibility: 6 or more miles 10+ km)
Ceiling: 5000 feet AGL
Clouds: scattered clouds at 2000 feet AGL
broken clouds at 5000 feet AGL
Weather: no significant weather forecast for this period